Emden — 3ERP5 — position and weather

sailwx.info

Track history (hours):
 
Tides and Currents Weather Stations Pressure Air Temp Water Temp Dewpoint Dewpoint Depression Visibility Wind Speed Wind Dir Waves Ship Positions

Emden

Last reported at 2014-Sep-17 03:21 UTC. Time now 2014-Sep-17 07:33 UTC.
Position N 51°01' W 006°01'.

Length 177 m; draft 7.8 m.

Type: Ship. MMSI: 355051000.

Date/timePositionNaut miles runAvg speedWind from/ knotsBaromVisibWave heightAir tempDewpointWater temp
2014-Sep-17 03:21N 51°01' W 006°01'1215.2
2014-Sep-17 02:33N 51°13' W 006°02'1515.0
2014-Sep-17 01:33N 51°28' W 006°02'1614.6
2014-Sep-17 00:30N 51°43' W 005°59'2915.2
2014-Sep-16 22:33N 52°12' W 005°54'1616.4
2014-Sep-16 21:33N 52°29' W 005°53'9 0.4
2014-Sep-15 22:11N 52°21' W 005°49'9514.3
2014-Sep-15 15:31N 50°45' W 005°53'1414.7
2014-Sep-15 14:33N 50°31' W 005°55'17511.6
2014-Sep-14 23:33N 50°18' W 001°22'1211.9
2014-Sep-14 22:33N 50°21' W 001°04'1313.3
2014-Sep-14 21:33N 50°24' W 000°43'1514.9
2014-Sep-14 20:33N 50°28' W 000°21'1615.7
2014-Sep-14 19:33N 50°33' E 000°03'1616.1
2014-Sep-14 18:33N 50°37' E 000°27'1615.5
2014-Sep-14 17:33N 50°44' E 000°49'1414.3
2014-Sep-14 16:33N 50°53' E 001°06'1312.8
2014-Sep-14 15:33N 51°01' E 001°22'1312.9
2014-Sep-14 14:34N 51°09' E 001°38'1414.0
2014-Sep-14 13:33N 51°20' E 001°53'1616.0
2014-Sep-14 12:33N 51°33' E 002°08'1716.5
2014-Sep-14 11:33N 51°46' E 002°25'12114.5
2014-Sep-14 03:09N 53°20' E 004°31'1015.3
2014-Sep-14 02:32N 53°28' E 004°38'1515.5
2014-Sep-14 01:33N 53°34' E 005°02'5012.4
2014-Sep-13 21:33N 53°37' E 006°26'1211.9
2014-Sep-13 20:34N 53°32' E 006°44'1211.7
2014-Sep-13 19:33N 53°24' E 006°57'9 8.7
2014-Sep-13 18:34N 53°20' E 007°11'0 0.0
2014-Sep-13 17:32N 53°20' E 007°11'0 0.0
2014-Sep-13 16:28N 53°20' E 007°11'0 0.0
2014-Sep-13 15:31N 53°20' E 007°11'0 0.0
2014-Sep-13 13:32N 53°20' E 007°11'0 0.0
2014-Sep-13 12:31N 53°20' E 007°11'0 0.0
2014-Sep-13 11:28N 53°20' E 007°11'0 0.0
2014-Sep-13 10:31N 53°20' E 007°11'0 0.0
2014-Sep-13 09:28N 53°20' E 007°11'0 0.0
2014-Sep-13 08:31N 53°20' E 007°11'0 0.0
2014-Sep-13 07:31N 53°20' E 007°11'0 0.0
2014-Sep-13 06:31N 53°20' E 007°11'0 0.0
2014-Sep-13 05:31N 53°20' E 007°11'0 0.0
2014-Sep-13 04:31N 53°20' E 007°11'0 0.0
2014-Sep-13 03:31N 53°20' E 007°11'0 0.0
2014-Sep-13 02:31N 53°20' E 007°11'0 0.0
2014-Sep-13 01:31N 53°20' E 007°11'0 0.0
2014-Sep-13 00:31N 53°20' E 007°11'0 0.1
2014-Sep-12 23:34N 53°20' E 007°11'8 7.6
2014-Sep-12 22:33N 53°22' E 006°59'1616.1
2014-Sep-12 21:33N 53°34' E 006°40'1413.5
2014-Sep-12 20:33N 53°38' E 006°18'1312.5
2014-Sep-12 19:34N 53°38' E 005°57'1414.4
2014-Sep-12 18:34N 53°35' E 005°34'1414.2
2014-Sep-12 17:34N 53°30' E 005°11'1413.5
2014-Sep-12 16:34N 53°25' E 004°50'1312.7
2014-Sep-12 15:33N 53°16' E 004°35'1313.1
2014-Sep-12 14:33N 53°04' E 004°25'1313.1
2014-Sep-12 13:33N 52°53' E 004°16'1313.0
2014-Sep-12 12:33N 52°42' E 004°04'1312.6
2014-Sep-12 11:33N 52°33' E 003°50'1212.5
2014-Sep-12 10:33N 52°25' E 003°34'1212.0
2014-Sep-12 09:32N 52°16' E 003°19'4313.3
2014-Sep-12 06:17N 51°44' E 002°33'1214.8
2014-Sep-12 05:29N 51°35' E 002°21'1415.2
2014-Sep-12 04:33N 51°22' E 002°09'1515.1
2014-Sep-12 03:33N 51°11' E 001°55'1616.4
2014-Sep-12 02:33N 50°60' E 001°35'3215.8
2014-Sep-12 00:33N 50°33' E 001°07'1514.7
2014-Sep-11 23:33N 50°26' E 000°47'1615.6
2014-Sep-11 22:30N 50°21' E 000°22'23613.1
2014-Sep-11 04:29N 48°55' W 005°17'3215.0
2014-Sep-11 02:21N 48°31' W 005°49'1314.9
2014-Sep-11 01:30N 48°20' W 005°59'59013.7
2014-Sep-09 06:22N 38°54' W 009°52'1213.5
2014-Sep-09 05:31N 38°42' W 009°51'1313.9
2014-Sep-09 04:33N 38°32' W 009°40'1714.2
2014-Sep-09 03:21N 38°22' W 009°23'1213.7
2014-Sep-09 02:28N 38°20' W 009°08'1112.0
2014-Sep-09 01:34N 38°28' W 008°57'5 4.9
2014-Sep-09 00:31N 38°31' W 008°52'0 0.0
2014-Sep-08 23:31N 38°31' W 008°52'0 0.0
2014-Sep-08 22:31N 38°31' W 008°52'0 0.0
2014-Sep-08 21:31N 38°31' W 008°52'0 0.0
2014-Sep-08 20:31N 38°31' W 008°52'0 0.0
2014-Sep-08 19:33N 38°31' W 008°52'0 0.0
2014-Sep-08 18:33N 38°31' W 008°52'0 0.0
2014-Sep-08 17:33N 38°31' W 008°52'0 0.0
2014-Sep-08 16:33N 38°31' W 008°52'0 0.0
2014-Sep-08 15:24N 38°31' W 008°52'0 0.0
2014-Sep-08 14:33N 38°31' W 008°52'0 0.0
2014-Sep-08 13:33N 38°31' W 008°52'5 4.6
2014-Sep-08 12:32N 38°28' W 008°57'5 5.5
2014-Sep-08 11:33N 38°24' W 009°00'2 1.8
2014-Sep-08 10:31N 38°25' W 009°02'5 5.7
2014-Sep-08 09:33N 38°20' W 009°05'1312.8
2014-Sep-08 08:33N 38°21' W 009°22'1414.1
2014-Sep-08 07:33N 38°27' W 009°38'  
Track history (hours):
 
Tides and Currents Weather Stations Pressure Air Temp Water Temp Dewpoint Dewpoint Depression Visibility Wind Speed Wind Dir Waves Ship Positions

Emden

Last reported at 2014-Sep-17 03:21 UTC. Time now 2014-Sep-17 07:33 UTC.
Position N 51°01' W 006°01'.

Length 177 m; draft 7.8 m.

Type: Ship. MMSI: 355051000.

Date/timePositionNaut miles runAvg speedWind from/ knotsBaromVisibWave heightAir tempDewpointWater temp
2014-Sep-17 03:21N 51°01' W 006°01'1215.2
2014-Sep-17 02:33N 51°13' W 006°02'1515.0
2014-Sep-17 01:33N 51°28' W 006°02'1614.6
2014-Sep-17 00:30N 51°43' W 005°59'2915.2
2014-Sep-16 22:33N 52°12' W 005°54'1616.4
2014-Sep-16 21:33N 52°29' W 005°53'9 0.4
2014-Sep-15 22:11N 52°21' W 005°49'9514.3
2014-Sep-15 15:31N 50°45' W 005°53'1414.7
2014-Sep-15 14:33N 50°31' W 005°55'17511.6
2014-Sep-14 23:33N 50°18' W 001°22'1211.9
2014-Sep-14 22:33N 50°21' W 001°04'1313.3
2014-Sep-14 21:33N 50°24' W 000°43'1514.9
2014-Sep-14 20:33N 50°28' W 000°21'1615.7
2014-Sep-14 19:33N 50°33' E 000°03'1616.1
2014-Sep-14 18:33N 50°37' E 000°27'1615.5
2014-Sep-14 17:33N 50°44' E 000°49'1414.3
2014-Sep-14 16:33N 50°53' E 001°06'1312.8
2014-Sep-14 15:33N 51°01' E 001°22'1312.9
2014-Sep-14 14:34N 51°09' E 001°38'1414.0
2014-Sep-14 13:33N 51°20' E 001°53'1616.0
2014-Sep-14 12:33N 51°33' E 002°08'1716.5
2014-Sep-14 11:33N 51°46' E 002°25'12114.5
2014-Sep-14 03:09N 53°20' E 004°31'1015.3
2014-Sep-14 02:32N 53°28' E 004°38'1515.5
2014-Sep-14 01:33N 53°34' E 005°02'5012.4
2014-Sep-13 21:33N 53°37' E 006°26'1211.9
2014-Sep-13 20:34N 53°32' E 006°44'1211.7
2014-Sep-13 19:33N 53°24' E 006°57'9 8.7
2014-Sep-13 18:34N 53°20' E 007°11'0 0.0
2014-Sep-13 17:32N 53°20' E 007°11'0 0.0
2014-Sep-13 16:28N 53°20' E 007°11'0 0.0
2014-Sep-13 15:31N 53°20' E 007°11'0 0.0
2014-Sep-13 13:32N 53°20' E 007°11'0 0.0
2014-Sep-13 12:31N 53°20' E 007°11'0 0.0
2014-Sep-13 11:28N 53°20' E 007°11'0 0.0
2014-Sep-13 10:31N 53°20' E 007°11'0 0.0
2014-Sep-13 09:28N 53°20' E 007°11'0 0.0
2014-Sep-13 08:31N 53°20' E 007°11'0 0.0
2014-Sep-13 07:31N 53°20' E 007°11'0 0.0
2014-Sep-13 06:31N 53°20' E 007°11'0 0.0
2014-Sep-13 05:31N 53°20' E 007°11'0 0.0
2014-Sep-13 04:31N 53°20' E 007°11'0 0.0
2014-Sep-13 03:31N 53°20' E 007°11'0 0.0
2014-Sep-13 02:31N 53°20' E 007°11'0 0.0
2014-Sep-13 01:31N 53°20' E 007°11'0 0.0
2014-Sep-13 00:31N 53°20' E 007°11'0 0.1
2014-Sep-12 23:34N 53°20' E 007°11'8 7.6
2014-Sep-12 22:33N 53°22' E 006°59'1616.1
2014-Sep-12 21:33N 53°34' E 006°40'1413.5
2014-Sep-12 20:33N 53°38' E 006°18'1312.5
2014-Sep-12 19:34N 53°38' E 005°57'1414.4
2014-Sep-12 18:34N 53°35' E 005°34'1414.2
2014-Sep-12 17:34N 53°30' E 005°11'1413.5
2014-Sep-12 16:34N 53°25' E 004°50'1312.7
2014-Sep-12 15:33N 53°16' E 004°35'1313.1
2014-Sep-12 14:33N 53°04' E 004°25'1313.1
2014-Sep-12 13:33N 52°53' E 004°16'1313.0
2014-Sep-12 12:33N 52°42' E 004°04'1312.6
2014-Sep-12 11:33N 52°33' E 003°50'1212.5
2014-Sep-12 10:33N 52°25' E 003°34'1212.0
2014-Sep-12 09:32N 52°16' E 003°19'4313.3
2014-Sep-12 06:17N 51°44' E 002°33'1214.8
2014-Sep-12 05:29N 51°35' E 002°21'1415.2
2014-Sep-12 04:33N 51°22' E 002°09'1515.1
2014-Sep-12 03:33N 51°11' E 001°55'1616.4
2014-Sep-12 02:33N 50°60' E 001°35'3215.8
2014-Sep-12 00:33N 50°33' E 001°07'1514.7
2014-Sep-11 23:33N 50°26' E 000°47'1615.6
2014-Sep-11 22:30N 50°21' E 000°22'23613.1
2014-Sep-11 04:29N 48°55' W 005°17'3215.0
2014-Sep-11 02:21N 48°31' W 005°49'1314.9
2014-Sep-11 01:30N 48°20' W 005°59'59013.7
2014-Sep-09 06:22N 38°54' W 009°52'1213.5
2014-Sep-09 05:31N 38°42' W 009°51'1313.9
2014-Sep-09 04:33N 38°32' W 009°40'1714.2
2014-Sep-09 03:21N 38°22' W 009°23'1213.7
2014-Sep-09 02:28N 38°20' W 009°08'1112.0
2014-Sep-09 01:34N 38°28' W 008°57'5 4.9
2014-Sep-09 00:31N 38°31' W 008°52'0 0.0
2014-Sep-08 23:31N 38°31' W 008°52'0 0.0
2014-Sep-08 22:31N 38°31' W 008°52'0 0.0
2014-Sep-08 21:31N 38°31' W 008°52'0 0.0
2014-Sep-08 20:31N 38°31' W 008°52'0 0.0
2014-Sep-08 19:33N 38°31' W 008°52'0 0.0
2014-Sep-08 18:33N 38°31' W 008°52'0 0.0
2014-Sep-08 17:33N 38°31' W 008°52'0 0.0
2014-Sep-08 16:33N 38°31' W 008°52'0 0.0
2014-Sep-08 15:24N 38°31' W 008°52'0 0.0
2014-Sep-08 14:33N 38°31' W 008°52'0 0.0
2014-Sep-08 13:33N 38°31' W 008°52'5 4.6
2014-Sep-08 12:32N 38°28' W 008°57'5 5.5
2014-Sep-08 11:33N 38°24' W 009°00'2 1.8
2014-Sep-08 10:31N 38°25' W 009°02'5 5.7
2014-Sep-08 09:33N 38°20' W 009°05'1312.8
2014-Sep-08 08:33N 38°21' W 009°22'1414.1
2014-Sep-08 07:33N 38°27' W 009°38'  

Dump ship's entire track history